sensor_id;sensor_type;location;lat;lon;timestamp;temperature;humidity
7196;DHT22;3639;51.308;5.624;2023-04-10T00:02:16;8.50;99.90
7196;DHT22;3639;51.308;5.624;2023-04-10T00:04:42;8.50;99.90
7196;DHT22;3639;51.308;5.624;2023-04-10T00:07:08;8.50;99.90
7196;DHT22;3639;51.308;5.624;2023-04-10T00:09:33;8.50;99.90
7196;DHT22;3639;51.308;5.624;2023-04-10T00:11:59;8.50;99.90
7196;DHT22;3639;51.308;5.624;2023-04-10T00:14:25;8.50;99.90
7196;DHT22;3639;51.308;5.624;2023-04-10T00:16:50;8.50;99.90
7196;DHT22;3639;51.308;5.624;2023-04-10T00:19:16;8.40;99.90
7196;DHT22;3639;51.308;5.624;2023-04-10T00:21:42;8.40;99.90
7196;DHT22;3639;51.308;5.624;2023-04-10T00:24:08;8.40;99.90
7196;DHT22;3639;51.308;5.624;2023-04-10T00:26:37;8.40;99.90
7196;DHT22;3639;51.308;5.624;2023-04-10T00:29:02;8.30;99.90
7196;DHT22;3639;51.308;5.624;2023-04-10T00:31:29;8.30;99.90
7196;DHT22;3639;51.308;5.624;2023-04-10T00:33:54;8.40;99.90
7196;DHT22;3639;51.308;5.624;2023-04-10T00:36:20;8.40;99.90
7196;DHT22;3639;51.308;5.624;2023-04-10T00:38:47;8.30;99.90
7196;DHT22;3639;51.308;5.624;2023-04-10T00:41:13;8.30;99.90
7196;DHT22;3639;51.308;5.624;2023-04-10T00:43:38;8.30;99.90
7196;DHT22;3639;51.308;5.624;2023-04-10T00:46:04;8.30;99.90
7196;DHT22;3639;51.308;5.624;2023-04-10T00:48:32;8.20;99.90
7196;DHT22;3639;51.308;5.624;2023-04-10T00:50:58;8.20;99.90
7196;DHT22;3639;51.308;5.624;2023-04-10T00:53:24;8.20;99.90
7196;DHT22;3639;51.308;5.624;2023-04-10T00:55:51;8.20;99.90
7196;DHT22;3639;51.308;5.624;2023-04-10T00:58:17;8.10;99.90
7196;DHT22;3639;51.308;5.624;2023-04-10T01:00:43;8.10;99.90
7196;DHT22;3639;51.308;5.624;2023-04-10T01:03:10;8.10;99.90
7196;DHT22;3639;51.308;5.624;2023-04-10T01:11:04;8.00;99.90
7196;DHT22;3639;51.308;5.624;2023-04-10T01:13:43;7.90;99.90
7196;DHT22;3639;51.308;5.624;2023-04-10T01:16:19;7.90;99.90
7196;DHT22;3639;51.308;5.624;2023-04-10T01:18:53;7.80;99.90
7196;DHT22;3639;51.308;5.624;2023-04-10T01:21:22;7.80;99.90
7196;DHT22;3639;51.308;5.624;2023-04-10T01:27:19;7.70;99.90
7196;DHT22;3639;51.308;5.624;2023-04-10T01:29:53;7.70;99.90
7196;DHT22;3639;51.308;5.624;2023-04-10T01:32:21;7.70;99.90
7196;DHT22;3639;51.308;5.624;2023-04-10T01:34:54;7.60;99.90
7196;DHT22;3639;51.308;5.624;2023-04-10T01:37:24;7.60;99.90
7196;DHT22;3639;51.308;5.624;2023-04-10T01:40:01;7.60;99.90
7196;DHT22;3639;51.308;5.624;2023-04-10T01:42:30;7.60;99.90
7196;DHT22;3639;51.308;5.624;2023-04-10T01:44:57;7.60;99.90
7196;DHT22;3639;51.308;5.624;2023-04-10T01:47:24;7.60;99.90
7196;DHT22;3639;51.308;5.624;2023-04-10T01:49:52;7.60;99.90
7196;DHT22;3639;51.308;5.624;2023-04-10T01:52:20;7.50;99.90
7196;DHT22;3639;51.308;5.624;2023-04-10T01:54:47;7.50;99.90
7196;DHT22;3639;51.308;5.624;2023-04-10T01:57:17;7.50;99.90
7196;DHT22;3639;51.308;5.624;2023-04-10T01:59:43;7.50;99.90
7196;DHT22;3639;51.308;5.624;2023-04-10T02:02:08;7.50;99.90
7196;DHT22;3639;51.308;5.624;2023-04-10T02:04:36;7.50;99.90
7196;DHT22;3639;51.308;5.624;2023-04-10T02:07:10;7.40;99.90
7196;DHT22;3639;51.308;5.624;2023-04-10T02:09:53;7.40;99.90
7196;DHT22;3639;51.308;5.624;2023-04-10T02:12:48;7.40;99.90
7196;DHT22;3639;51.308;5.624;2023-04-10T02:15:19;7.30;99.90
7196;DHT22;3639;51.308;5.624;2023-04-10T02:17:46;7.30;99.90
7196;DHT22;3639;51.308;5.624;2023-04-10T02:20:13;7.30;99.90
7196;DHT22;3639;51.308;5.624;2023-04-10T02:22:41;7.30;99.90
7196;DHT22;3639;51.308;5.624;2023-04-10T02:25:10;7.30;99.90
7196;DHT22;3639;51.308;5.624;2023-04-10T02:27:37;7.30;99.90
7196;DHT22;3639;51.308;5.624;2023-04-10T02:30:03;7.20;99.90
7196;DHT22;3639;51.308;5.624;2023-04-10T02:32:30;7.20;99.90
7196;DHT22;3639;51.308;5.624;2023-04-10T02:34:57;7.20;99.90
7196;DHT22;3639;51.308;5.624;2023-04-10T02:37:24;7.20;99.90
7196;DHT22;3639;51.308;5.624;2023-04-10T02:39:50;7.20;99.90
7196;DHT22;3639;51.308;5.624;2023-04-10T02:42:16;7.20;99.90
7196;DHT22;3639;51.308;5.624;2023-04-10T02:44:41;7.20;99.90
7196;DHT22;3639;51.308;5.624;2023-04-10T02:47:07;7.20;99.90
7196;DHT22;3639;51.308;5.624;2023-04-10T02:49:33;7.20;99.90
7196;DHT22;3639;51.308;5.624;2023-04-10T02:52:02;7.20;99.90
7196;DHT22;3639;51.308;5.624;2023-04-10T02:54:27;7.20;99.90
7196;DHT22;3639;51.308;5.624;2023-04-10T02:56:54;7.20;99.90
7196;DHT22;3639;51.308;5.624;2023-04-10T02:59:21;7.20;99.90
7196;DHT22;3639;51.308;5.624;2023-04-10T03:01:47;7.20;99.90
7196;DHT22;3639;51.308;5.624;2023-04-10T03:04:13;7.20;99.90
7196;DHT22;3639;51.308;5.624;2023-04-10T03:06:38;7.20;99.90
7196;DHT22;3639;51.308;5.624;2023-04-10T03:09:04;7.20;99.90
7196;DHT22;3639;51.308;5.624;2023-04-10T03:11:30;7.20;99.90
7196;DHT22;3639;51.308;5.624;2023-04-10T03:13:56;7.10;99.90
7196;DHT22;3639;51.308;5.624;2023-04-10T03:16:24;7.10;99.90
7196;DHT22;3639;51.308;5.624;2023-04-10T03:18:51;7.10;99.90
7196;DHT22;3639;51.308;5.624;2023-04-10T03:21:16;7.10;99.90
7196;DHT22;3639;51.308;5.624;2023-04-10T03:23:42;7.10;99.90
7196;DHT22;3639;51.308;5.624;2023-04-10T03:26:08;7.10;99.90
7196;DHT22;3639;51.308;5.624;2023-04-10T03:28:33;7.10;99.90
7196;DHT22;3639;51.308;5.624;2023-04-10T03:31:01;7.00;99.90
7196;DHT22;3639;51.308;5.624;2023-04-10T03:33:27;7.00;99.90
7196;DHT22;3639;51.308;5.624;2023-04-10T03:35:53;7.00;99.90
7196;DHT22;3639;51.308;5.624;2023-04-10T03:38:18;6.90;99.90
7196;DHT22;3639;51.308;5.624;2023-04-10T03:40:44;6.90;99.90
7196;DHT22;3639;51.308;5.624;2023-04-10T03:43:10;6.90;99.90
7196;DHT22;3639;51.308;5.624;2023-04-10T03:45:35;6.90;99.90
7196;DHT22;3639;51.308;5.624;2023-04-10T03:48:01;6.80;99.90
7196;DHT22;3639;51.308;5.624;2023-04-10T03:50:26;6.80;99.90
7196;DHT22;3639;51.308;5.624;2023-04-10T03:52:52;6.70;99.90
7196;DHT22;3639;51.308;5.624;2023-04-10T03:55:18;6.70;99.90
7196;DHT22;3639;51.308;5.624;2023-04-10T03:57:44;6.70;99.90
7196;DHT22;3639;51.308;5.624;2023-04-10T04:00:12;6.70;99.90
7196;DHT22;3639;51.308;5.624;2023-04-10T04:02:37;6.60;99.90
7196;DHT22;3639;51.308;5.624;2023-04-10T04:05:03;6.60;99.90
7196;DHT22;3639;51.308;5.624;2023-04-10T04:07:29;6.50;99.90
7196;DHT22;3639;51.308;5.624;2023-04-10T04:09:55;6.50;99.90
7196;DHT22;3639;51.308;5.624;2023-04-10T04:12:21;6.50;99.90
7196;DHT22;3639;51.308;5.624;2023-04-10T04:14:46;6.40;99.90
7196;DHT22;3639;51.308;5.624;2023-04-10T04:17:12;6.40;99.90
7196;DHT22;3639;51.308;5.624;2023-04-10T04:19:37;6.40;99.90
7196;DHT22;3639;51.308;5.624;2023-04-10T04:22:03;6.40;99.90
7196;DHT22;3639;51.308;5.624;2023-04-10T04:24:29;6.40;99.90
7196;DHT22;3639;51.308;5.624;2023-04-10T04:26:54;6.40;99.90
7196;DHT22;3639;51.308;5.624;2023-04-10T04:29:21;6.30;99.90
7196;DHT22;3639;51.308;5.624;2023-04-10T04:31:46;6.40;99.90
7196;DHT22;3639;51.308;5.624;2023-04-10T04:34:12;6.30;99.90
7196;DHT22;3639;51.308;5.624;2023-04-10T04:36:38;6.30;99.90
7196;DHT22;3639;51.308;5.624;2023-04-10T04:39:03;6.30;99.90
7196;DHT22;3639;51.308;5.624;2023-04-10T04:41:29;6.20;99.90
7196;DHT22;3639;51.308;5.624;2023-04-10T04:43:58;6.30;99.90
7196;DHT22;3639;51.308;5.624;2023-04-10T04:46:28;6.30;99.90
7196;DHT22;3639;51.308;5.624;2023-04-10T04:48:53;6.30;99.90
7196;DHT22;3639;51.308;5.624;2023-04-10T04:51:19;6.30;99.90
7196;DHT22;3639;51.308;5.624;2023-04-10T04:53:45;6.30;99.90
7196;DHT22;3639;51.308;5.624;2023-04-10T04:56:13;6.30;99.90
7196;DHT22;3639;51.308;5.624;2023-04-10T04:58:42;6.30;99.90
7196;DHT22;3639;51.308;5.624;2023-04-10T05:01:08;6.30;99.90
7196;DHT22;3639;51.308;5.624;2023-04-10T05:03:33;6.40;99.90
7196;DHT22;3639;51.308;5.624;2023-04-10T05:05:59;6.50;99.90
7196;DHT22;3639;51.308;5.624;2023-04-10T05:08:25;6.50;99.90
7196;DHT22;3639;51.308;5.624;2023-04-10T05:10:50;6.50;99.90
7196;DHT22;3639;51.308;5.624;2023-04-10T05:13:16;6.50;99.90
7196;DHT22;3639;51.308;5.624;2023-04-10T05:15:43;6.50;99.90
7196;DHT22;3639;51.308;5.624;2023-04-10T05:18:09;6.50;99.90
7196;DHT22;3639;51.308;5.624;2023-04-10T05:20:35;6.50;99.90
7196;DHT22;3639;51.308;5.624;2023-04-10T05:23:01;6.60;99.90
7196;DHT22;3639;51.308;5.624;2023-04-10T05:25:27;6.60;99.90
7196;DHT22;3639;51.308;5.624;2023-04-10T05:27:52;6.60;99.90
7196;DHT22;3639;51.308;5.624;2023-04-10T05:30:18;6.70;99.90
7196;DHT22;3639;51.308;5.624;2023-04-10T05:32:44;6.70;99.90
7196;DHT22;3639;51.308;5.624;2023-04-10T05:35:10;6.70;99.90
7196;DHT22;3639;51.308;5.624;2023-04-10T05:37:36;6.80;99.90
7196;DHT22;3639;51.308;5.624;2023-04-10T05:40:02;6.90;99.90
7196;DHT22;3639;51.308;5.624;2023-04-10T05:42:28;6.90;99.90
7196;DHT22;3639;51.308;5.624;2023-04-10T05:44:55;7.00;99.90
7196;DHT22;3639;51.308;5.624;2023-04-10T05:47:20;7.10;99.90
7196;DHT22;3639;51.308;5.624;2023-04-10T05:49:46;7.10;99.90
7196;DHT22;3639;51.308;5.624;2023-04-10T05:52:12;7.20;99.90
7196;DHT22;3639;51.308;5.624;2023-04-10T05:54:37;7.30;99.90
7196;DHT22;3639;51.308;5.624;2023-04-10T05:57:03;7.40;99.90
7196;DHT22;3639;51.308;5.624;2023-04-10T05:59:29;7.60;99.90
7196;DHT22;3639;51.308;5.624;2023-04-10T06:01:56;7.60;99.90
7196;DHT22;3639;51.308;5.624;2023-04-10T06:04:22;7.70;99.90
7196;DHT22;3639;51.308;5.624;2023-04-10T06:06:54;7.70;99.90
7196;DHT22;3639;51.308;5.624;2023-04-10T06:09:19;7.80;99.90
7196;DHT22;3639;51.308;5.624;2023-04-10T06:11:45;7.80;99.90
7196;DHT22;3639;51.308;5.624;2023-04-10T06:14:11;8.00;99.90
7196;DHT22;3639;51.308;5.624;2023-04-10T06:16:37;8.00;99.90
7196;DHT22;3639;51.308;5.624;2023-04-10T06:19:02;8.10;99.90
7196;DHT22;3639;51.308;5.624;2023-04-10T06:21:28;8.20;99.90
7196;DHT22;3639;51.308;5.624;2023-04-10T06:23:54;8.30;99.90
7196;DHT22;3639;51.308;5.624;2023-04-10T06:26:20;8.30;99.90
7196;DHT22;3639;51.308;5.624;2023-04-10T06:28:45;8.40;99.90
7196;DHT22;3639;51.308;5.624;2023-04-10T06:31:11;8.60;99.90
7196;DHT22;3639;51.308;5.624;2023-04-10T06:33:37;8.60;99.90
7196;DHT22;3639;51.308;5.624;2023-04-10T06:36:03;8.70;99.90
7196;DHT22;3639;51.308;5.624;2023-04-10T06:38:31;8.90;99.90
7196;DHT22;3639;51.308;5.624;2023-04-10T06:41:03;9.00;99.90
7196;DHT22;3639;51.308;5.624;2023-04-10T06:43:29;9.10;99.90
7196;DHT22;3639;51.308;5.624;2023-04-10T06:45:56;9.20;99.90
7196;DHT22;3639;51.308;5.624;2023-04-10T06:48:22;9.30;99.90
7196;DHT22;3639;51.308;5.624;2023-04-10T06:50:47;9.50;99.90
7196;DHT22;3639;51.308;5.624;2023-04-10T06:53:13;9.60;99.90
7196;DHT22;3639;51.308;5.624;2023-04-10T06:55:39;9.60;99.90
7196;DHT22;3639;51.308;5.624;2023-04-10T06:58:04;9.70;99.90
7196;DHT22;3639;51.308;5.624;2023-04-10T07:00:30;9.70;99.90
7196;DHT22;3639;51.308;5.624;2023-04-10T07:02:56;9.70;99.90
7196;DHT22;3639;51.308;5.624;2023-04-10T07:05:21;9.80;99.90
7196;DHT22;3639;51.308;5.624;2023-04-10T07:07:48;9.90;99.90
7196;DHT22;3639;51.308;5.624;2023-04-10T07:10:15;10.00;99.90
7196;DHT22;3639;51.308;5.624;2023-04-10T07:12:41;10.20;99.90
7196;DHT22;3639;51.308;5.624;2023-04-10T07:15:07;10.30;99.90
7196;DHT22;3639;51.308;5.624;2023-04-10T07:17:33;10.30;99.90
7196;DHT22;3639;51.308;5.624;2023-04-10T07:19:59;10.40;99.90
7196;DHT22;3639;51.308;5.624;2023-04-10T07:22:25;10.40;99.90
7196;DHT22;3639;51.308;5.624;2023-04-10T07:24:53;10.50;99.90
7196;DHT22;3639;51.308;5.624;2023-04-10T07:27:18;10.40;99.90
7196;DHT22;3639;51.308;5.624;2023-04-10T07:29:45;10.50;99.90
7196;DHT22;3639;51.308;5.624;2023-04-10T07:32:11;10.60;99.90
7196;DHT22;3639;51.308;5.624;2023-04-10T07:34:37;10.60;99.90
7196;DHT22;3639;51.308;5.624;2023-04-10T07:37:02;10.70;99.90
7196;DHT22;3639;51.308;5.624;2023-04-10T07:39:28;10.70;99.90
7196;DHT22;3639;51.308;5.624;2023-04-10T07:41:54;10.60;99.90
7196;DHT22;3639;51.308;5.624;2023-04-10T07:44:22;10.80;99.90
7196;DHT22;3639;51.308;5.624;2023-04-10T07:46:48;10.80;99.90
7196;DHT22;3639;51.308;5.624;2023-04-10T07:49:13;10.90;99.90
7196;DHT22;3639;51.308;5.624;2023-04-10T07:51:39;10.90;99.90
7196;DHT22;3639;51.308;5.624;2023-04-10T07:54:05;10.90;99.90
7196;DHT22;3639;51.308;5.624;2023-04-10T07:56:31;10.90;99.90
7196;DHT22;3639;51.308;5.624;2023-04-10T07:58:58;11.00;99.90
7196;DHT22;3639;51.308;5.624;2023-04-10T08:01:25;11.00;99.90
7196;DHT22;3639;51.308;5.624;2023-04-10T08:03:51;11.10;99.90
7196;DHT22;3639;51.308;5.624;2023-04-10T08:06:17;11.20;99.90
7196;DHT22;3639;51.308;5.624;2023-04-10T08:08:43;11.50;99.90
7196;DHT22;3639;51.308;5.624;2023-04-10T08:11:28;11.60;99.90
7196;DHT22;3639;51.308;5.624;2023-04-10T08:13:56;11.90;99.90
7196;DHT22;3639;51.308;5.624;2023-04-10T08:16:27;12.20;99.90
7196;DHT22;3639;51.308;5.624;2023-04-10T08:18:54;12.40;99.90
7196;DHT22;3639;51.308;5.624;2023-04-10T08:21:21;12.60;99.90
7196;DHT22;3639;51.308;5.624;2023-04-10T08:23:52;12.80;99.90
7196;DHT22;3639;51.308;5.624;2023-04-10T08:26:17;13.00;99.90
7196;DHT22;3639;51.308;5.624;2023-04-10T08:28:48;13.20;99.90
7196;DHT22;3639;51.308;5.624;2023-04-10T08:31:16;13.40;99.90
7196;DHT22;3639;51.308;5.624;2023-04-10T08:33:41;13.40;99.90
7196;DHT22;3639;51.308;5.624;2023-04-10T08:36:08;13.30;99.90
7196;DHT22;3639;51.308;5.624;2023-04-10T08:38:34;13.40;99.90
7196;DHT22;3639;51.308;5.624;2023-04-10T08:40:59;13.40;99.90
7196;DHT22;3639;51.308;5.624;2023-04-10T08:43:25;13.50;99.90
7196;DHT22;3639;51.308;5.624;2023-04-10T08:45:51;13.50;99.90
7196;DHT22;3639;51.308;5.624;2023-04-10T08:48:18;13.70;99.90
7196;DHT22;3639;51.308;5.624;2023-04-10T08:50:48;13.70;99.60
7196;DHT22;3639;51.308;5.624;2023-04-10T08:53:15;13.60;99.70
7196;DHT22;3639;51.308;5.624;2023-04-10T08:55:44;13.70;99.80
7196;DHT22;3639;51.308;5.624;2023-04-10T08:58:10;13.90;99.60
7196;DHT22;3639;51.308;5.624;2023-04-10T09:00:38;14.00;99.70
7196;DHT22;3639;51.308;5.624;2023-04-10T09:03:08;14.20;99.50
7196;DHT22;3639;51.308;5.624;2023-04-10T09:05:36;14.20;99.60
7196;DHT22;3639;51.308;5.624;2023-04-10T09:08:03;14.40;99.20
7196;DHT22;3639;51.308;5.624;2023-04-10T09:10:29;14.30;98.40
7196;DHT22;3639;51.308;5.624;2023-04-10T09:12:54;14.30;99.20
7196;DHT22;3639;51.308;5.624;2023-04-10T09:15:20;14.40;98.90
7196;DHT22;3639;51.308;5.624;2023-04-10T09:18:01;14.50;99.10
7196;DHT22;3639;51.308;5.624;2023-04-10T09:20:29;14.50;99.10
7196;DHT22;3639;51.308;5.624;2023-04-10T09:22:55;14.60;99.70
7196;DHT22;3639;51.308;5.624;2023-04-10T09:25:36;14.80;99.00
7196;DHT22;3639;51.308;5.624;2023-04-10T09:28:05;15.00;98.10
7196;DHT22;3639;51.308;5.624;2023-04-10T09:30:41;15.00;98.10
7196;DHT22;3639;51.308;5.624;2023-04-10T09:33:26;15.10;97.90
7196;DHT22;3639;51.308;5.624;2023-04-10T09:35:53;15.40;97.20
7196;DHT22;3639;51.308;5.624;2023-04-10T09:38:21;15.20;97.10
7196;DHT22;3639;51.308;5.624;2023-04-10T09:40:47;15.10;97.80
7196;DHT22;3639;51.308;5.624;2023-04-10T09:43:24;15.20;97.60
7196;DHT22;3639;51.308;5.624;2023-04-10T09:45:52;15.20;97.80
7196;DHT22;3639;51.308;5.624;2023-04-10T09:48:18;15.20;98.20
7196;DHT22;3639;51.308;5.624;2023-04-10T09:50:44;15.30;98.00
7196;DHT22;3639;51.308;5.624;2023-04-10T09:53:14;15.20;97.60
7196;DHT22;3639;51.308;5.624;2023-04-10T09:55:41;15.20;97.90
7196;DHT22;3639;51.308;5.624;2023-04-10T09:58:08;15.20;97.70
7196;DHT22;3639;51.308;5.624;2023-04-10T10:00:45;15.10;97.30
7196;DHT22;3639;51.308;5.624;2023-04-10T10:03:17;15.10;97.20
7196;DHT22;3639;51.308;5.624;2023-04-10T10:05:45;15.10;97.60
7196;DHT22;3639;51.308;5.624;2023-04-10T10:08:12;15.20;97.10
7196;DHT22;3639;51.308;5.624;2023-04-10T10:10:43;15.20;97.50
7196;DHT22;3639;51.308;5.624;2023-04-10T10:13:14;15.30;97.80
7196;DHT22;3639;51.308;5.624;2023-04-10T10:16:08;15.30;97.80
7196;DHT22;3639;51.308;5.624;2023-04-10T10:18:44;15.50;96.90
7196;DHT22;3639;51.308;5.624;2023-04-10T10:21:12;15.60;96.70
7196;DHT22;3639;51.308;5.624;2023-04-10T10:23:39;15.60;96.30
7196;DHT22;3639;51.308;5.624;2023-04-10T10:26:08;15.70;97.00
7196;DHT22;3639;51.308;5.624;2023-04-10T10:28:35;15.80;96.30
7196;DHT22;3639;51.308;5.624;2023-04-10T10:31:02;15.90;96.20
7196;DHT22;3639;51.308;5.624;2023-04-10T10:33:29;16.00;95.60
7196;DHT22;3639;51.308;5.624;2023-04-10T10:35:59;16.00;95.50
7196;DHT22;3639;51.308;5.624;2023-04-10T10:38:26;16.00;96.20
7196;DHT22;3639;51.308;5.624;2023-04-10T10:41:19;16.20;96.10
7196;DHT22;3639;51.308;5.624;2023-04-10T10:46:46;16.30;95.10
7196;DHT22;3639;51.308;5.624;2023-04-10T10:49:08;16.30;95.00
7196;DHT22;3639;51.308;5.624;2023-04-10T10:51:50;16.50;95.00
7196;DHT22;3639;51.308;5.624;2023-04-10T10:54:42;16.40;94.30
7196;DHT22;3639;51.308;5.624;2023-04-10T10:57:46;16.40;94.20
7196;DHT22;3639;51.308;5.624;2023-04-10T11:00:13;16.40;94.40
7196;DHT22;3639;51.308;5.624;2023-04-10T11:02:38;16.60;95.00
7196;DHT22;3639;51.308;5.624;2023-04-10T11:05:05;16.70;95.40
7196;DHT22;3639;51.308;5.624;2023-04-10T11:13:23;17.00;93.90
7196;DHT22;3639;51.308;5.624;2023-04-10T11:15:50;17.00;93.70
7196;DHT22;3639;51.308;5.624;2023-04-10T11:18:16;16.90;94.10
7196;DHT22;3639;51.308;5.624;2023-04-10T11:21:07;16.80;94.20
7196;DHT22;3639;51.308;5.624;2023-04-10T11:23:33;16.90;94.40
7196;DHT22;3639;51.308;5.624;2023-04-10T11:25:58;16.90;93.50
7196;DHT22;3639;51.308;5.624;2023-04-10T11:28:34;17.00;93.90
7196;DHT22;3639;51.308;5.624;2023-04-10T11:31:20;17.10;93.70
7196;DHT22;3639;51.308;5.624;2023-04-10T11:36:23;17.50;93.40
7196;DHT22;3639;51.308;5.624;2023-04-10T11:39:13;17.60;93.50
7196;DHT22;3639;51.308;5.624;2023-04-10T11:41:45;17.80;93.10
7196;DHT22;3639;51.308;5.624;2023-04-10T11:44:13;17.80;93.10
7196;DHT22;3639;51.308;5.624;2023-04-10T11:46:45;17.80;92.40
7196;DHT22;3639;51.308;5.624;2023-04-10T11:49:17;17.80;92.90
7196;DHT22;3639;51.308;5.624;2023-04-10T11:51:45;17.80;92.50
7196;DHT22;3639;51.308;5.624;2023-04-10T11:54:15;17.80;92.70
7196;DHT22;3639;51.308;5.624;2023-04-10T11:56:42;17.80;92.30
7196;DHT22;3639;51.308;5.624;2023-04-10T11:59:08;17.80;93.00
7196;DHT22;3639;51.308;5.624;2023-04-10T12:01:36;17.80;92.40
7196;DHT22;3639;51.308;5.624;2023-04-10T12:04:02;17.90;93.00
7196;DHT22;3639;51.308;5.624;2023-04-10T12:06:28;18.00;93.10
7196;DHT22;3639;51.308;5.624;2023-04-10T12:08:54;18.00;92.60
7196;DHT22;3639;51.308;5.624;2023-04-10T12:11:22;18.10;91.80
7196;DHT22;3639;51.308;5.624;2023-04-10T12:13:53;18.10;92.00
7196;DHT22;3639;51.308;5.624;2023-04-10T12:16:19;18.00;92.10
7196;DHT22;3639;51.308;5.624;2023-04-10T12:18:45;18.10;92.40
7196;DHT22;3639;51.308;5.624;2023-04-10T12:21:11;18.10;92.60
7196;DHT22;3639;51.308;5.624;2023-04-10T12:23:38;18.10;91.80
7196;DHT22;3639;51.308;5.624;2023-04-10T12:26:17;18.00;91.60
7196;DHT22;3639;51.308;5.624;2023-04-10T12:28:54;17.90;92.00
7196;DHT22;3639;51.308;5.624;2023-04-10T12:31:35;17.90;91.70
7196;DHT22;3639;51.308;5.624;2023-04-10T12:34:03;18.10;91.60
7196;DHT22;3639;51.308;5.624;2023-04-10T12:36:31;18.20;91.40
7196;DHT22;3639;51.308;5.624;2023-04-10T12:39:00;18.40;91.50
7196;DHT22;3639;51.308;5.624;2023-04-10T12:41:32;18.50;90.80
7196;DHT22;3639;51.308;5.624;2023-04-10T12:44:11;18.50;91.00
7196;DHT22;3639;51.308;5.624;2023-04-10T12:46:38;18.50;90.50
7196;DHT22;3639;51.308;5.624;2023-04-10T12:49:14;18.30;90.90
7196;DHT22;3639;51.308;5.624;2023-04-10T12:51:50;18.30;90.90
7196;DHT22;3639;51.308;5.624;2023-04-10T12:54:34;18.20;90.40
7196;DHT22;3639;51.308;5.624;2023-04-10T12:57:01;18.20;90.70
7196;DHT22;3639;51.308;5.624;2023-04-10T12:59:29;18.20;91.00
7196;DHT22;3639;51.308;5.624;2023-04-10T13:01:55;18.20;90.60
7196;DHT22;3639;51.308;5.624;2023-04-10T13:04:21;18.10;90.40
7196;DHT22;3639;51.308;5.624;2023-04-10T13:06:48;18.10;90.80
7196;DHT22;3639;51.308;5.624;2023-04-10T13:09:14;18.10;91.00
7196;DHT22;3639;51.308;5.624;2023-04-10T13:11:40;18.10;90.60
7196;DHT22;3639;51.308;5.624;2023-04-10T13:14:07;18.10;90.50
7196;DHT22;3639;51.308;5.624;2023-04-10T13:16:33;18.00;90.40
7196;DHT22;3639;51.308;5.624;2023-04-10T13:18:59;18.00;91.00
7196;DHT22;3639;51.308;5.624;2023-04-10T13:21:25;17.90;90.30
7196;DHT22;3639;51.308;5.624;2023-04-10T13:23:53;17.90;90.70
7196;DHT22;3639;51.308;5.624;2023-04-10T13:26:20;17.90;91.20
7196;DHT22;3639;51.308;5.624;2023-04-10T13:28:45;17.90;91.30
7196;DHT22;3639;51.308;5.624;2023-04-10T13:31:11;17.90;91.20
7196;DHT22;3639;51.308;5.624;2023-04-10T13:33:37;17.90;91.00
7196;DHT22;3639;51.308;5.624;2023-04-10T13:36:03;17.90;90.90
7196;DHT22;3639;51.308;5.624;2023-04-10T13:38:29;17.80;91.50
7196;DHT22;3639;51.308;5.624;2023-04-10T13:40:55;17.80;91.00
7196;DHT22;3639;51.308;5.624;2023-04-10T13:43:21;17.80;91.40
7196;DHT22;3639;51.308;5.624;2023-04-10T13:45:46;17.70;91.20
7196;DHT22;3639;51.308;5.624;2023-04-10T13:48:14;17.70;91.20
7196;DHT22;3639;51.308;5.624;2023-04-10T13:50:42;17.60;91.50
7196;DHT22;3639;51.308;5.624;2023-04-10T13:53:07;17.50;91.70
7196;DHT22;3639;51.308;5.624;2023-04-10T13:55:34;17.50;91.50
7196;DHT22;3639;51.308;5.624;2023-04-10T13:58:02;17.60;91.40
7196;DHT22;3639;51.308;5.624;2023-04-10T14:00:27;17.60;91.60
7196;DHT22;3639;51.308;5.624;2023-04-10T14:02:53;17.70;91.40
7196;DHT22;3639;51.308;5.624;2023-04-10T14:05:19;17.80;91.20
7196;DHT22;3639;51.308;5.624;2023-04-10T14:07:47;18.00;91.60
7196;DHT22;3639;51.308;5.624;2023-04-10T14:10:16;18.00;91.30
7196;DHT22;3639;51.308;5.624;2023-04-10T14:12:41;17.90;91.50
7196;DHT22;3639;51.308;5.624;2023-04-10T14:15:07;18.00;92.10
7196;DHT22;3639;51.308;5.624;2023-04-10T14:17:33;17.80;91.10
7196;DHT22;3639;51.308;5.624;2023-04-10T14:19:59;17.80;91.70
7196;DHT22;3639;51.308;5.624;2023-04-10T14:22:27;17.80;91.50
7196;DHT22;3639;51.308;5.624;2023-04-10T14:24:54;17.70;91.20
7196;DHT22;3639;51.308;5.624;2023-04-10T14:27:20;17.60;91.30
7196;DHT22;3639;51.308;5.624;2023-04-10T14:29:46;17.40;91.40
7196;DHT22;3639;51.308;5.624;2023-04-10T14:32:11;17.40;91.70
7196;DHT22;3639;51.308;5.624;2023-04-10T14:34:37;17.30;91.50
7196;DHT22;3639;51.308;5.624;2023-04-10T14:37:03;17.20;91.90
7196;DHT22;3639;51.308;5.624;2023-04-10T14:39:28;17.20;91.80
7196;DHT22;3639;51.308;5.624;2023-04-10T14:41:54;17.10;92.20
7196;DHT22;3639;51.308;5.624;2023-04-10T14:44:21;17.00;93.70
7196;DHT22;3639;51.308;5.624;2023-04-10T14:46:49;16.80;94.30
7196;DHT22;3639;51.308;5.624;2023-04-10T14:49:15;16.70;95.40
7196;DHT22;3639;51.308;5.624;2023-04-10T14:51:47;16.50;95.80
7196;DHT22;3639;51.308;5.624;2023-04-10T14:54:14;16.30;95.60
7196;DHT22;3639;51.308;5.624;2023-04-10T14:56:41;16.10;97.10
7196;DHT22;3639;51.308;5.624;2023-04-10T14:59:07;16.00;98.10
7196;DHT22;3639;51.308;5.624;2023-04-10T15:01:33;15.70;98.40
7196;DHT22;3639;51.308;5.624;2023-04-10T15:04:00;15.60;99.70
7196;DHT22;3639;51.308;5.624;2023-04-10T15:06:26;15.40;99.90
7196;DHT22;3639;51.308;5.624;2023-04-10T15:08:53;15.20;99.90
7196;DHT22;3639;51.308;5.624;2023-04-10T15:11:20;15.10;99.90
7196;DHT22;3639;51.308;5.624;2023-04-10T15:13:46;14.90;99.90
7196;DHT22;3639;51.308;5.624;2023-04-10T15:16:12;14.90;99.90
7196;DHT22;3639;51.308;5.624;2023-04-10T15:18:37;14.80;99.90
7196;DHT22;3639;51.308;5.624;2023-04-10T15:21:03;14.90;99.90
7196;DHT22;3639;51.308;5.624;2023-04-10T15:23:29;15.10;99.90
7196;DHT22;3639;51.308;5.624;2023-04-10T15:25:55;15.10;99.90
7196;DHT22;3639;51.308;5.624;2023-04-10T15:28:21;15.10;99.90
7196;DHT22;3639;51.308;5.624;2023-04-10T15:30:46;15.10;99.90
7196;DHT22;3639;51.308;5.624;2023-04-10T15:33:17;15.20;99.90
7196;DHT22;3639;51.308;5.624;2023-04-10T15:35:47;15.30;99.90
7196;DHT22;3639;51.308;5.624;2023-04-10T15:38:13;15.40;99.90
7196;DHT22;3639;51.308;5.624;2023-04-10T15:40:39;15.50;99.90
7196;DHT22;3639;51.308;5.624;2023-04-10T15:43:05;15.60;99.90
7196;DHT22;3639;51.308;5.624;2023-04-10T15:45:30;15.60;99.90
7196;DHT22;3639;51.308;5.624;2023-04-10T15:47:56;15.70;99.90
7196;DHT22;3639;51.308;5.624;2023-04-10T15:50:25;15.80;99.70
7196;DHT22;3639;51.308;5.624;2023-04-10T15:52:51;15.70;99.50
7196;DHT22;3639;51.308;5.624;2023-04-10T15:55:17;15.70;99.90
7196;DHT22;3639;51.308;5.624;2023-04-10T15:57:43;15.70;99.50
7196;DHT22;3639;51.308;5.624;2023-04-10T16:00:09;15.60;99.30
7196;DHT22;3639;51.308;5.624;2023-04-10T16:02:34;15.60;99.30
7196;DHT22;3639;51.308;5.624;2023-04-10T16:05:00;15.60;99.80
7196;DHT22;3639;51.308;5.624;2023-04-10T16:07:26;15.60;99.90
7196;DHT22;3639;51.308;5.624;2023-04-10T16:09:51;15.60;99.90
7196;DHT22;3639;51.308;5.624;2023-04-10T16:12:19;15.60;99.90
7196;DHT22;3639;51.308;5.624;2023-04-10T16:14:45;15.50;99.90
7196;DHT22;3639;51.308;5.624;2023-04-10T16:17:10;15.40;99.90
7196;DHT22;3639;51.308;5.624;2023-04-10T16:19:36;15.40;99.90
7196;DHT22;3639;51.308;5.624;2023-04-10T16:22:01;15.40;99.90
7196;DHT22;3639;51.308;5.624;2023-04-10T16:24:27;15.50;99.90
7196;DHT22;3639;51.308;5.624;2023-04-10T16:26:53;15.50;99.90
7196;DHT22;3639;51.308;5.624;2023-04-10T16:29:18;15.40;99.90
7196;DHT22;3639;51.308;5.624;2023-04-10T16:31:44;15.40;99.80
7196;DHT22;3639;51.308;5.624;2023-04-10T16:34:10;15.40;99.60